Impacts METAR Board
IDs:

KDCA - Washington/National, VA, US

Updated at: 2100 UTC 20 Jun 2019
Potential Impact None Slight Moderate High
Time 20/09Z 20/10Z 20/11Z 20/12Z 20/13Z 20/14Z 20/15Z 20/16Z 20/17Z 20/18Z 20/19Z 20/20Z 20/21Z
Temp76 76 76 77 79 82 83 87 86 90 90 92 89
Dewpt72 72 73 73 72 73 74 72 69 69 68 67 67
Altim29.63 29.63 29.62 29.63 29.62 29.62 29.61 29.59 29.57 29.56 29.53 29.52 29.52
VIS10 10 10 10 10 10 10 10 10 10 10 10 10
CIG7 9 9 10 110 250 250 30 40 -- -- -- 75
CoverOVCOVCOVCOVCBKNBKNBKNBKNBKNSCTSCTSCTBKN
FltCatIFRIFRIFRMVFRVFRVFRVFRMVFRVFRVFRVFRVFRVFR
WX--------------------------
WDir180190190170230240160240240260240270240
WSpd7 7 6 7 7 8 8 11 16 15 15 14 15
WGst-- -- -- -- -- -- -- 19 -- 21 21 -- --
Raw hourly METARs
KDCA 200905Z 18007KT 10SM OVC007 24/22 A2963 RMK AO2 T02440222
KDCA 200952Z 19007KT 10SM BKN009 OVC014 24/22 A2963 RMK AO2 SLP034 T02440222
KDCA 201052Z 19006KT 10SM BKN009 OVC014 24/23 A2962 RMK AO2 SLP030 T02440228
KDCA 201152Z 17007KT 10SM OVC010 25/23 A2963 RMK AO2 SLP034 T02500228 10250 20244 53001
KDCA 201303Z 23007KT 10SM SCT015 BKN110 BKN250 26/22 A2962 RMK AO2 SCT V BKN T02610222
KDCA 201352Z 24008KT 10SM SCT018 SCT110 BKN250 28/23 A2962 RMK AO2 SLP030 T02780228
KDCA 201452Z 16008KT 10SM SCT020 SCT120 BKN250 28/23 A2961 RMK AO2 SLP025 T02830233 58009
KDCA 201552Z 24011G19KT 10SM BKN030 BKN120 BKN250 31/22 A2959 RMK AO2 SLP019 T03060222
KDCA 201652Z 24016KT 10SM BKN040 BKN250 30/21 A2957 RMK AO2 SLP015 T03000206
KDCA 201752Z 26015G21KT 10SM SCT045TCU SCT120 SCT250 32/21 A2956 RMK AO2 SLP009 TCU OHD AND N-NE VCSH NE T03220206 10322 20250 57016
KDCA 201852Z 24015G21KT 10SM SCT050 SCT160 SCT250 32/20 A2953 RMK AO2 SLP001 CB DSNT NE MOV E T03220200
KDCA 201952Z 27014KT 10SM FEW060 SCT150 SCT250 33/19 A2952 RMK AO2 SLP997 T03330194
KDCA 202052Z 24015KT 10SM SCT060 BKN075 BKN120 BKN250 32/19 A2952 RMK AO2 SLP995 T03170194 56014



Page loaded:  21:38 UTC  |   02:38 PM Pacific  |   03:38 PM Mountain  |   04:38 PM Central  |   05:38 PM Eastern

 

ADVISORIES

FORECASTS

FORECASTS

OBSERVATIONS

USER TOOLS

ABOUT US